createdAt,value
2019-02-10T00:00:36.990Z,8.24
2019-02-10T00:03:03.621Z,8.19
2019-02-10T00:05:29.747Z,8.16
2019-02-10T00:07:55.889Z,8.18
2019-02-10T00:10:22.000Z,8.16
2019-02-10T00:13:22.702Z,8.15
2019-02-10T00:15:48.947Z,8.14
2019-02-10T00:18:15.159Z,8.13
2019-02-10T00:20:41.604Z,8.08
2019-02-10T00:23:07.743Z,8.12
2019-02-10T00:25:33.875Z,8.09
2019-02-10T00:28:01.624Z,8.08
2019-02-10T00:30:27.770Z,8.04
2019-02-10T00:32:53.883Z,8.00
2019-02-10T00:35:20.074Z,8.00
2019-02-10T00:37:46.122Z,7.92
2019-02-10T00:40:12.417Z,7.90
2019-02-10T00:42:38.445Z,7.81
2019-02-10T00:45:04.557Z,7.74
2019-02-10T00:47:30.712Z,7.69
2019-02-10T00:49:56.959Z,7.64
2019-02-10T00:52:23.120Z,7.56
2019-02-10T00:54:49.322Z,7.54
2019-02-10T00:57:15.560Z,7.49
2019-02-10T00:59:41.711Z,7.43
2019-02-10T01:02:07.829Z,7.37
2019-02-10T01:04:34.002Z,7.29
2019-02-10T01:07:00.102Z,7.27
2019-02-10T01:09:26.229Z,7.23
2019-02-10T01:11:52.350Z,7.16
2019-02-10T01:14:18.452Z,7.10
2019-02-10T01:16:44.583Z,7.02
2019-02-10T01:19:10.962Z,7.00
2019-02-10T01:21:37.094Z,6.96
2019-02-10T01:24:03.236Z,6.94
2019-02-10T01:26:29.388Z,6.93
2019-02-10T01:28:55.517Z,6.92
2019-02-10T01:31:21.722Z,6.90
2019-02-10T01:33:47.834Z,6.90
2019-02-10T01:36:13.972Z,6.90
2019-02-10T01:38:40.094Z,6.89
2019-02-10T01:41:06.208Z,6.86
2019-02-10T01:43:32.341Z,6.88
2019-02-10T01:45:58.487Z,6.86
2019-02-10T01:48:24.591Z,6.84
2019-02-10T01:50:50.725Z,6.80
2019-02-10T01:53:16.989Z,6.79
2019-02-10T01:55:43.135Z,6.78
2019-02-10T01:58:09.406Z,6.76
2019-02-10T02:00:36.251Z,6.80
2019-02-10T02:03:02.370Z,6.81
2019-02-10T02:05:28.970Z,6.81
2019-02-10T02:07:55.171Z,6.81
2019-02-10T02:10:21.697Z,6.83
2019-02-10T02:12:47.833Z,6.84
2019-02-10T02:15:14.336Z,6.86
2019-02-10T02:17:40.472Z,6.85
2019-02-10T02:20:08.288Z,6.82
2019-02-10T02:22:37.322Z,6.87
2019-02-10T02:25:08.667Z,6.86
2019-02-10T02:27:34.869Z,6.89
2019-02-10T02:30:01.006Z,6.94
2019-02-10T02:32:27.098Z,7.07
2019-02-10T02:34:53.231Z,7.12
2019-02-10T02:37:19.333Z,7.19
2019-02-10T02:39:45.679Z,7.28
2019-02-10T02:42:11.816Z,7.32
2019-02-10T02:44:37.808Z,7.36
2019-02-10T02:47:03.948Z,7.39
2019-02-10T02:49:30.115Z,7.42
2019-02-10T02:51:56.258Z,7.47
2019-02-10T02:54:22.488Z,7.51
2019-02-10T02:56:48.629Z,7.55
2019-02-10T02:59:14.811Z,7.66
2019-02-10T03:01:40.958Z,7.68
2019-02-10T03:04:07.178Z,7.74
2019-02-10T03:06:45.105Z,7.86
2019-02-10T03:09:12.033Z,7.92
2019-02-10T03:11:38.182Z,8.00
2019-02-10T03:14:06.194Z,8.07
2019-02-10T03:16:32.326Z,8.13
2019-02-10T03:18:58.374Z,8.16
2019-02-10T03:21:24.558Z,8.18
2019-02-10T03:23:50.598Z,8.23
2019-02-10T03:26:18.620Z,8.30
2019-02-10T03:28:44.860Z,8.31
2019-02-10T03:31:10.988Z,8.37
2019-02-10T03:33:37.151Z,8.43
2019-02-10T03:36:03.262Z,8.46
2019-02-10T03:38:29.273Z,8.52
2019-02-10T03:40:55.412Z,8.55
2019-02-10T03:43:21.587Z,8.56
2019-02-10T03:45:47.713Z,8.60
2019-02-10T03:48:13.856Z,8.63
2019-02-10T03:50:40.006Z,8.64
2019-02-10T03:53:06.162Z,8.66
2019-02-10T03:55:32.310Z,8.68
2019-02-10T03:57:58.442Z,8.70
2019-02-10T04:00:24.483Z,8.74
2019-02-10T04:02:50.588Z,8.78
2019-02-10T04:05:16.733Z,8.79
2019-02-10T04:07:42.961Z,8.78
2019-02-10T04:10:09.345Z,8.77
2019-02-10T04:12:35.464Z,8.80
2019-02-10T04:15:01.642Z,8.80
2019-02-10T04:17:27.774Z,8.84
2019-02-10T04:19:53.892Z,8.86
2019-02-10T04:22:20.024Z,8.85
2019-02-10T04:24:46.121Z,8.91
2019-02-10T04:27:12.250Z,8.93
2019-02-10T04:29:38.401Z,8.94
2019-02-10T04:32:04.532Z,8.95
2019-02-10T04:34:33.736Z,8.96
2019-02-10T04:36:59.979Z,8.95
2019-02-10T04:39:26.201Z,8.94
2019-02-10T04:41:52.433Z,8.95
2019-02-10T04:44:18.550Z,8.94
2019-02-10T04:46:44.685Z,8.97
2019-02-10T04:49:10.733Z,8.97
2019-02-10T04:51:36.952Z,8.96
2019-02-10T04:54:03.088Z,8.99
2019-02-10T04:56:29.238Z,9.00
2019-02-10T04:58:55.393Z,9.00
2019-02-10T05:01:21.547Z,9.04
2019-02-10T05:03:47.686Z,9.05
2019-02-10T05:06:13.807Z,9.04
2019-02-10T05:08:40.046Z,9.08
2019-02-10T05:11:06.202Z,9.05
2019-02-10T05:13:32.309Z,9.11
2019-02-10T05:15:58.454Z,9.12
2019-02-10T05:18:24.575Z,9.13
2019-02-10T05:20:50.702Z,9.14
2019-02-10T05:23:16.843Z,9.20
2019-02-10T05:25:42.961Z,9.20
2019-02-10T05:28:09.128Z,9.21
2019-02-10T05:30:35.193Z,9.25
2019-02-10T05:33:01.348Z,9.24
2019-02-10T05:35:27.601Z,9.27
2019-02-10T05:37:53.729Z,9.31
2019-02-10T05:40:19.817Z,9.33
2019-02-10T05:42:45.853Z,9.33
2019-02-10T05:45:11.988Z,9.34
2019-02-10T05:47:38.056Z,9.34
2019-02-10T05:50:05.935Z,9.36
2019-02-10T05:52:32.259Z,9.37
2019-02-10T05:54:58.746Z,9.38
2019-02-10T05:57:24.834Z,9.38
2019-02-10T05:59:50.931Z,9.35
2019-02-10T06:02:21.793Z,9.30
2019-02-10T06:04:48.015Z,9.25
2019-02-10T06:07:16.791Z,9.21
2019-02-10T06:09:43.232Z,9.15
2019-02-10T06:12:09.373Z,9.13
2019-02-10T06:14:35.491Z,9.06
2019-02-10T06:17:01.640Z,9.01
2019-02-10T06:19:27.848Z,9.01
2019-02-10T06:21:53.982Z,9.01
2019-02-10T06:24:20.138Z,9.00
2019-02-10T06:26:46.367Z,9.04
2019-02-10T06:29:12.622Z,9.01
2019-02-10T06:31:38.810Z,9.01
2019-02-10T06:34:04.904Z,8.97
2019-02-10T06:36:31.069Z,8.92
2019-02-10T06:38:57.208Z,8.87
2019-02-10T06:41:23.739Z,8.83
2019-02-10T06:43:49.884Z,8.77
2019-02-10T06:46:15.997Z,8.73
2019-02-10T06:48:42.191Z,8.73
2019-02-10T06:51:08.409Z,8.68
2019-02-10T06:53:34.839Z,8.67
2019-02-10T06:56:01.054Z,8.65
2019-02-10T06:58:27.424Z,8.64
2019-02-10T07:00:55.436Z,8.61
2019-02-10T07:03:29.218Z,8.57
2019-02-10T07:05:55.328Z,8.53
2019-02-10T07:08:21.498Z,8.51
2019-02-10T07:10:47.622Z,8.45
2019-02-10T07:13:20.092Z,8.42
2019-02-10T07:16:23.523Z,8.38
2019-02-10T07:19:18.968Z,8.35
2019-02-10T07:21:45.123Z,8.32
2019-02-10T07:24:40.824Z,8.26
2019-02-10T07:27:10.559Z,8.22
2019-02-10T07:29:51.775Z,8.17
2019-02-10T07:32:21.446Z,8.15
2019-02-10T07:35:00.232Z,8.09
2019-02-10T07:37:35.846Z,8.07
2019-02-10T07:40:20.677Z,7.99
2019-02-10T07:42:56.467Z,7.91
2019-02-10T07:45:26.177Z,7.83
2019-02-10T07:48:02.097Z,7.79
2019-02-10T07:50:43.981Z,7.72
2019-02-10T07:53:16.708Z,7.61
2019-02-10T07:55:55.514Z,7.51
2019-02-10T07:58:40.497Z,7.47
2019-02-10T08:01:19.470Z,7.44
2019-02-10T08:03:55.142Z,7.37
2019-02-10T08:06:24.862Z,7.36
2019-02-10T08:08:54.623Z,7.36
2019-02-10T08:11:39.289Z,7.34
